sensor_id;sensor_type;location;lat;lon;timestamp;P1;durP1;ratioP1;P2;durP2;ratioP2
48522;SDS011;34315;50.150;11.070;2022-09-17T00:00:23;5.60;;;3.17;;
48522;SDS011;34315;50.150;11.070;2022-09-17T00:05:23;11.85;;;3.97;;
48522;SDS011;34315;50.150;11.070;2022-09-17T00:10:24;6.88;;;3.20;;
48522;SDS011;34315;50.150;11.070;2022-09-17T00:15:24;5.65;;;2.90;;
48522;SDS011;34315;50.150;11.070;2022-09-17T00:20:25;6.63;;;3.20;;
48522;SDS011;34315;50.150;11.070;2022-09-17T00:25:26;5.70;;;3.30;;
48522;SDS011;34315;50.150;11.070;2022-09-17T00:30:26;6.60;;;3.72;;
48522;SDS011;34315;50.150;11.070;2022-09-17T00:35:27;4.88;;;3.20;;
48522;SDS011;34315;50.150;11.070;2022-09-17T00:40:27;12.02;;;3.95;;
48522;SDS011;34315;50.150;11.070;2022-09-17T00:45:28;8.35;;;3.67;;
48522;SDS011;34315;50.150;11.070;2022-09-17T00:55:42;5.20;;;3.35;;
48522;SDS011;34315;50.150;11.070;2022-09-17T01:00:45;5.88;;;3.53;;
48522;SDS011;34315;50.150;11.070;2022-09-17T01:05:48;8.23;;;3.38;;
48522;SDS011;34315;50.150;11.070;2022-09-17T01:11:03;6.00;;;2.97;;
48522;SDS011;34315;50.150;11.070;2022-09-17T01:21:58;7.68;;;3.13;;
48522;SDS011;34315;50.150;11.070;2022-09-17T01:27:47;7.30;;;3.10;;
48522;SDS011;34315;50.150;11.070;2022-09-17T01:32:41;4.80;;;3.30;;
48522;SDS011;34315;50.150;11.070;2022-09-17T01:37:50;7.03;;;3.90;;
48522;SDS011;34315;50.150;11.070;2022-09-17T01:42:58;6.50;;;3.45;;
48522;SDS011;34315;50.150;11.070;2022-09-17T01:48:12;7.20;;;3.72;;
48522;SDS011;34315;50.150;11.070;2022-09-17T01:53:17;5.03;;;3.17;;
48522;SDS011;34315;50.150;11.070;2022-09-17T01:58:32;8.77;;;3.40;;
48522;SDS011;34315;50.150;11.070;2022-09-17T02:03:36;6.72;;;4.03;;
48522;SDS011;34315;50.150;11.070;2022-09-17T02:08:48;6.90;;;4.13;;
48522;SDS011;34315;50.150;11.070;2022-09-17T02:13:56;7.88;;;3.70;;
48522;SDS011;34315;50.150;11.070;2022-09-17T02:24:17;7.00;;;4.20;;
48522;SDS011;34315;50.150;11.070;2022-09-17T02:29:34;7.30;;;4.53;;
48522;SDS011;34315;50.150;11.070;2022-09-17T02:34:37;8.98;;;4.28;;
48522;SDS011;34315;50.150;11.070;2022-09-17T02:39:38;10.55;;;4.75;;
48522;SDS011;34315;50.150;11.070;2022-09-17T02:45:00;8.65;;;4.63;;
48522;SDS011;34315;50.150;11.070;2022-09-17T02:50:23;9.13;;;4.05;;
48522;SDS011;34315;50.150;11.070;2022-09-17T02:55:40;10.40;;;4.93;;
48522;SDS011;34315;50.150;11.070;2022-09-17T03:00:44;7.20;;;4.43;;
48522;SDS011;34315;50.150;11.070;2022-09-17T03:05:45;8.55;;;3.90;;
48522;SDS011;34315;50.150;11.070;2022-09-17T03:10:46;8.90;;;4.47;;
48522;SDS011;34315;50.150;11.070;2022-09-17T03:15:49;9.50;;;4.00;;
48522;SDS011;34315;50.150;11.070;2022-09-17T03:20:49;6.70;;;3.95;;
48522;SDS011;34315;50.150;11.070;2022-09-17T03:25:50;6.72;;;3.80;;
48522;SDS011;34315;50.150;11.070;2022-09-17T03:30:51;10.35;;;4.80;;
48522;SDS011;34315;50.150;11.070;2022-09-17T03:35:52;9.55;;;4.25;;
48522;SDS011;34315;50.150;11.070;2022-09-17T03:41:10;8.45;;;4.25;;
48522;SDS011;34315;50.150;11.070;2022-09-17T03:46:11;7.57;;;3.72;;
48522;SDS011;34315;50.150;11.070;2022-09-17T03:51:11;9.88;;;4.32;;
48522;SDS011;34315;50.150;11.070;2022-09-17T03:56:12;7.63;;;3.90;;
48522;SDS011;34315;50.150;11.070;2022-09-17T04:01:12;6.47;;;3.63;;
48522;SDS011;34315;50.150;11.070;2022-09-17T04:06:13;8.32;;;3.85;;
48522;SDS011;34315;50.150;11.070;2022-09-17T04:11:13;8.63;;;3.88;;
48522;SDS011;34315;50.150;11.070;2022-09-17T04:16:13;7.75;;;3.83;;
48522;SDS011;34315;50.150;11.070;2022-09-17T04:21:14;7.40;;;4.30;;
48522;SDS011;34315;50.150;11.070;2022-09-17T04:26:14;5.45;;;3.40;;
48522;SDS011;34315;50.150;11.070;2022-09-17T04:31:15;5.63;;;3.30;;
48522;SDS011;34315;50.150;11.070;2022-09-17T04:36:15;7.88;;;3.70;;
48522;SDS011;34315;50.150;11.070;2022-09-17T04:41:16;5.43;;;3.60;;
48522;SDS011;34315;50.150;11.070;2022-09-17T04:46:16;7.05;;;2.95;;
48522;SDS011;34315;50.150;11.070;2022-09-17T04:51:17;7.63;;;3.42;;
48522;SDS011;34315;50.150;11.070;2022-09-17T04:56:17;4.20;;;2.78;;
48522;SDS011;34315;50.150;11.070;2022-09-17T05:01:17;6.70;;;3.50;;
48522;SDS011;34315;50.150;11.070;2022-09-17T05:06:18;5.40;;;2.65;;
48522;SDS011;34315;50.150;11.070;2022-09-17T05:11:18;4.75;;;2.78;;
48522;SDS011;34315;50.150;11.070;2022-09-17T05:16:19;5.15;;;2.47;;
48522;SDS011;34315;50.150;11.070;2022-09-17T05:21:19;8.20;;;2.88;;
48522;SDS011;34315;50.150;11.070;2022-09-17T05:26:19;6.55;;;2.47;;
48522;SDS011;34315;50.150;11.070;2022-09-17T05:31:20;5.15;;;2.17;;
48522;SDS011;34315;50.150;11.070;2022-09-17T05:36:20;5.50;;;2.30;;
48522;SDS011;34315;50.150;11.070;2022-09-17T05:41:21;5.15;;;2.10;;
48522;SDS011;34315;50.150;11.070;2022-09-17T05:46:21;6.22;;;2.30;;
48522;SDS011;34315;50.150;11.070;2022-09-17T05:51:22;5.47;;;2.28;;
48522;SDS011;34315;50.150;11.070;2022-09-17T05:56:22;3.47;;;1.80;;
48522;SDS011;34315;50.150;11.070;2022-09-17T06:01:23;4.10;;;1.70;;
48522;SDS011;34315;50.150;11.070;2022-09-17T06:06:23;4.15;;;2.10;;
48522;SDS011;34315;50.150;11.070;2022-09-17T06:11:28;2.78;;;1.48;;
48522;SDS011;34315;50.150;11.070;2022-09-17T06:16:28;3.35;;;1.60;;
48522;SDS011;34315;50.150;11.070;2022-09-17T06:21:29;1.83;;;1.40;;
48522;SDS011;34315;50.150;11.070;2022-09-17T06:26:29;1.63;;;1.33;;
48522;SDS011;34315;50.150;11.070;2022-09-17T06:31:29;2.47;;;1.48;;
48522;SDS011;34315;50.150;11.070;2022-09-17T06:36:30;1.60;;;1.27;;
48522;SDS011;34315;50.150;11.070;2022-09-17T06:41:30;1.88;;;1.17;;
48522;SDS011;34315;50.150;11.070;2022-09-17T06:46:31;2.40;;;1.40;;
48522;SDS011;34315;50.150;11.070;2022-09-17T06:51:31;3.83;;;1.70;;
48522;SDS011;34315;50.150;11.070;2022-09-17T06:56:31;3.50;;;1.65;;
48522;SDS011;34315;50.150;11.070;2022-09-17T07:01:33;2.92;;;1.70;;
48522;SDS011;34315;50.150;11.070;2022-09-17T07:06:33;3.50;;;1.70;;
48522;SDS011;34315;50.150;11.070;2022-09-17T07:11:34;3.72;;;2.00;;
48522;SDS011;34315;50.150;11.070;2022-09-17T07:16:34;5.65;;;1.95;;
48522;SDS011;34315;50.150;11.070;2022-09-17T07:21:35;5.38;;;1.90;;
48522;SDS011;34315;50.150;11.070;2022-09-17T07:26:36;4.40;;;1.67;;
48522;SDS011;34315;50.150;11.070;2022-09-17T07:31:36;3.05;;;1.95;;
48522;SDS011;34315;50.150;11.070;2022-09-17T07:36:36;3.83;;;2.10;;
48522;SDS011;34315;50.150;11.070;2022-09-17T07:41:37;4.63;;;1.98;;
48522;SDS011;34315;50.150;11.070;2022-09-17T07:46:38;4.32;;;1.98;;
48522;SDS011;34315;50.150;11.070;2022-09-17T07:51:38;4.63;;;1.70;;
48522;SDS011;34315;50.150;11.070;2022-09-17T07:56:39;4.57;;;1.70;;
48522;SDS011;34315;50.150;11.070;2022-09-17T08:01:39;4.65;;;1.67;;
48522;SDS011;34315;50.150;11.070;2022-09-17T08:06:40;7.63;;;2.45;;
48522;SDS011;34315;50.150;11.070;2022-09-17T08:11:41;5.55;;;1.90;;
48522;SDS011;34315;50.150;11.070;2022-09-17T08:16:42;5.72;;;1.75;;
48522;SDS011;34315;50.150;11.070;2022-09-17T08:21:44;5.80;;;2.17;;
48522;SDS011;34315;50.150;11.070;2022-09-17T08:26:45;8.60;;;2.10;;
48522;SDS011;34315;50.150;11.070;2022-09-17T08:31:45;5.85;;;1.75;;
48522;SDS011;34315;50.150;11.070;2022-09-17T08:36:45;7.63;;;2.60;;
48522;SDS011;34315;50.150;11.070;2022-09-17T08:47:07;6.38;;;2.20;;
48522;SDS011;34315;50.150;11.070;2022-09-17T08:57:22;10.68;;;2.72;;
48522;SDS011;34315;50.150;11.070;2022-09-17T09:07:41;8.93;;;1.95;;
48522;SDS011;34315;50.150;11.070;2022-09-17T09:17:46;12.35;;;2.67;;
48522;SDS011;34315;50.150;11.070;2022-09-17T09:22:49;9.98;;;2.58;;
48522;SDS011;34315;50.150;11.070;2022-09-17T09:28:02;10.05;;;2.28;;
48522;SDS011;34315;50.150;11.070;2022-09-17T09:33:11;7.65;;;2.00;;
48522;SDS011;34315;50.150;11.070;2022-09-17T09:38:17;4.75;;;1.67;;
48522;SDS011;34315;50.150;11.070;2022-09-17T09:43:22;9.75;;;2.17;;
48522;SDS011;34315;50.150;11.070;2022-09-17T09:48:35;9.95;;;1.95;;
48522;SDS011;34315;50.150;11.070;2022-09-17T09:59:05;6.32;;;1.40;;
48522;SDS011;34315;50.150;11.070;2022-09-17T10:04:20;11.57;;;2.42;;
48522;SDS011;34315;50.150;11.070;2022-09-17T10:09:22;11.07;;;3.17;;
48522;SDS011;34315;50.150;11.070;2022-09-17T10:14:24;8.23;;;2.05;;
48522;SDS011;34315;50.150;11.070;2022-09-17T10:19:25;8.25;;;2.15;;
48522;SDS011;34315;50.150;11.070;2022-09-17T10:24:27;7.43;;;2.10;;
48522;SDS011;34315;50.150;11.070;2022-09-17T10:29:30;6.78;;;2.13;;
48522;SDS011;34315;50.150;11.070;2022-09-17T10:34:30;8.63;;;2.00;;
48522;SDS011;34315;50.150;11.070;2022-09-17T10:39:33;7.60;;;1.70;;
48522;SDS011;34315;50.150;11.070;2022-09-17T10:44:35;8.57;;;1.90;;
48522;SDS011;34315;50.150;11.070;2022-09-17T11:10:35;7.53;;;2.22;;
48522;SDS011;34315;50.150;11.070;2022-09-17T11:31:52;6.00;;;1.77;;
48522;SDS011;34315;50.150;11.070;2022-09-17T11:37:10;7.80;;;2.17;;
48522;SDS011;34315;50.150;11.070;2022-09-17T11:42:18;9.13;;;2.25;;
48522;SDS011;34315;50.150;11.070;2022-09-17T11:47:27;7.47;;;2.10;;
48522;SDS011;34315;50.150;11.070;2022-09-17T11:52:37;9.53;;;2.00;;
48522;SDS011;34315;50.150;11.070;2022-09-17T11:57:38;7.75;;;2.50;;
48522;SDS011;34315;50.150;11.070;2022-09-17T12:02:55;5.22;;;1.58;;
48522;SDS011;34315;50.150;11.070;2022-09-17T12:07:58;3.60;;;1.08;;
48522;SDS011;34315;50.150;11.070;2022-09-17T12:24:13;2.15;;;0.80;;
48522;SDS011;34315;50.150;11.070;2022-09-17T12:35:12;2.80;;;1.00;;
48522;SDS011;34315;50.150;11.070;2022-09-17T12:40:49;6.32;;;1.30;;
48522;SDS011;34315;50.150;11.070;2022-09-17T12:45:57;4.70;;;1.20;;
48522;SDS011;34315;50.150;11.070;2022-09-17T13:01:55;5.15;;;1.50;;
48522;SDS011;34315;50.150;11.070;2022-09-17T13:12:41;4.25;;;1.48;;
48522;SDS011;34315;50.150;11.070;2022-09-17T13:18:04;6.10;;;1.73;;
48522;SDS011;34315;50.150;11.070;2022-09-17T13:23:10;3.70;;;1.00;;
48522;SDS011;34315;50.150;11.070;2022-09-17T13:28:11;2.85;;;1.30;;
48522;SDS011;34315;50.150;11.070;2022-09-17T13:33:12;5.13;;;1.52;;
48522;SDS011;34315;50.150;11.070;2022-09-17T13:38:59;5.97;;;1.60;;
48522;SDS011;34315;50.150;11.070;2022-09-17T13:44:01;4.53;;;1.45;;
48522;SDS011;34315;50.150;11.070;2022-09-17T13:49:05;4.53;;;1.42;;
48522;SDS011;34315;50.150;11.070;2022-09-17T13:54:12;4.72;;;2.17;;
48522;SDS011;34315;50.150;11.070;2022-09-17T13:59:21;2.92;;;1.20;;
48522;SDS011;34315;50.150;11.070;2022-09-17T14:04:31;3.70;;;1.13;;
48522;SDS011;34315;50.150;11.070;2022-09-17T14:09:44;3.50;;;1.20;;
48522;SDS011;34315;50.150;11.070;2022-09-17T14:14:49;3.53;;;1.27;;
48522;SDS011;34315;50.150;11.070;2022-09-17T14:19:51;3.60;;;1.25;;
48522;SDS011;34315;50.150;11.070;2022-09-17T14:24:54;3.63;;;1.52;;
48522;SDS011;34315;50.150;11.070;2022-09-17T14:35:03;4.97;;;1.60;;
48522;SDS011;34315;50.150;11.070;2022-09-17T14:40:30;6.72;;;1.50;;
48522;SDS011;34315;50.150;11.070;2022-09-17T14:45:35;3.85;;;1.20;;
48522;SDS011;34315;50.150;11.070;2022-09-17T14:50:40;5.20;;;1.30;;
48522;SDS011;34315;50.150;11.070;2022-09-17T14:55:40;2.83;;;1.17;;
48522;SDS011;34315;50.150;11.070;2022-09-17T15:00:41;2.58;;;1.30;;
48522;SDS011;34315;50.150;11.070;2022-09-17T15:05:50;1.38;;;0.85;;
48522;SDS011;34315;50.150;11.070;2022-09-17T15:10:55;3.90;;;1.27;;
48522;SDS011;34315;50.150;11.070;2022-09-17T15:16:02;3.50;;;1.00;;
48522;SDS011;34315;50.150;11.070;2022-09-17T15:21:16;2.75;;;1.00;;
48522;SDS011;34315;50.150;11.070;2022-09-17T15:26:19;3.03;;;0.90;;
48522;SDS011;34315;50.150;11.070;2022-09-17T15:31:22;2.83;;;0.80;;
48522;SDS011;34315;50.150;11.070;2022-09-17T15:36:23;1.60;;;0.70;;
48522;SDS011;34315;50.150;11.070;2022-09-17T15:46:27;1.90;;;0.88;;
48522;SDS011;34315;50.150;11.070;2022-09-17T15:51:31;3.92;;;1.10;;
48522;SDS011;34315;50.150;11.070;2022-09-17T15:56:37;2.40;;;0.82;;
48522;SDS011;34315;50.150;11.070;2022-09-17T16:01:48;2.60;;;1.00;;
48522;SDS011;34315;50.150;11.070;2022-09-17T16:06:57;2.72;;;0.90;;
48522;SDS011;34315;50.150;11.070;2022-09-17T16:12:01;4.18;;;1.05;;
48522;SDS011;34315;50.150;11.070;2022-09-17T16:17:15;2.47;;;1.00;;
48522;SDS011;34315;50.150;11.070;2022-09-17T16:22:20;3.13;;;1.05;;
48522;SDS011;34315;50.150;11.070;2022-09-17T16:27:21;2.38;;;0.60;;
48522;SDS011;34315;50.150;11.070;2022-09-17T16:32:24;0.50;;;0.50;;
48522;SDS011;34315;50.150;11.070;2022-09-17T16:37:25;3.40;;;0.80;;
48522;SDS011;34315;50.150;11.070;2022-09-17T16:42:28;1.83;;;0.82;;
48522;SDS011;34315;50.150;11.070;2022-09-17T16:47:32;1.95;;;1.20;;
48522;SDS011;34315;50.150;11.070;2022-09-17T16:52:36;2.13;;;0.77;;
48522;SDS011;34315;50.150;11.070;2022-09-17T16:57:36;2.47;;;0.90;;
48522;SDS011;34315;50.150;11.070;2022-09-17T17:02:37;1.95;;;0.80;;
48522;SDS011;34315;50.150;11.070;2022-09-17T17:07:37;3.20;;;1.30;;
48522;SDS011;34315;50.150;11.070;2022-09-17T17:12:37;2.08;;;1.10;;
48522;SDS011;34315;50.150;11.070;2022-09-17T17:17:38;2.72;;;1.00;;
48522;SDS011;34315;50.150;11.070;2022-09-17T17:22:39;3.30;;;1.50;;
48522;SDS011;34315;50.150;11.070;2022-09-17T17:27:40;3.50;;;1.10;;
48522;SDS011;34315;50.150;11.070;2022-09-17T17:32:40;3.45;;;1.33;;
48522;SDS011;34315;50.150;11.070;2022-09-17T17:37:41;2.08;;;1.17;;
48522;SDS011;34315;50.150;11.070;2022-09-17T17:42:42;2.83;;;1.00;;
48522;SDS011;34315;50.150;11.070;2022-09-17T17:47:46;1.77;;;1.00;;
48522;SDS011;34315;50.150;11.070;2022-09-17T17:52:46;1.85;;;0.90;;
48522;SDS011;34315;50.150;11.070;2022-09-17T17:57:52;4.65;;;1.02;;
48522;SDS011;34315;50.150;11.070;2022-09-17T18:02:53;4.97;;;1.02;;
48522;SDS011;34315;50.150;11.070;2022-09-17T18:07:54;3.38;;;0.90;;
48522;SDS011;34315;50.150;11.070;2022-09-17T18:12:54;2.22;;;0.98;;
48522;SDS011;34315;50.150;11.070;2022-09-17T18:17:55;4.13;;;1.30;;
48522;SDS011;34315;50.150;11.070;2022-09-17T18:22:55;3.15;;;1.00;;
48522;SDS011;34315;50.150;11.070;2022-09-17T18:27:55;3.40;;;0.98;;
48522;SDS011;34315;50.150;11.070;2022-09-17T18:32:56;2.03;;;0.88;;
48522;SDS011;34315;50.150;11.070;2022-09-17T18:37:56;0.90;;;0.73;;
48522;SDS011;34315;50.150;11.070;2022-09-17T18:42:57;1.38;;;0.90;;
48522;SDS011;34315;50.150;11.070;2022-09-17T18:47:57;2.90;;;0.95;;
48522;SDS011;34315;50.150;11.070;2022-09-17T18:52:58;3.00;;;1.00;;
48522;SDS011;34315;50.150;11.070;2022-09-17T18:57:58;2.08;;;1.20;;
48522;SDS011;34315;50.150;11.070;2022-09-17T19:02:58;4.25;;;1.35;;
48522;SDS011;34315;50.150;11.070;2022-09-17T19:07:59;2.78;;;1.02;;
48522;SDS011;34315;50.150;11.070;2022-09-17T19:12:59;2.95;;;1.17;;
48522;SDS011;34315;50.150;11.070;2022-09-17T19:18:01;3.15;;;1.52;;
48522;SDS011;34315;50.150;11.070;2022-09-17T19:23:02;5.18;;;1.30;;
48522;SDS011;34315;50.150;11.070;2022-09-17T19:28:03;3.40;;;1.40;;
48522;SDS011;34315;50.150;11.070;2022-09-17T19:33:04;3.83;;;1.60;;
48522;SDS011;34315;50.150;11.070;2022-09-17T19:38:04;7.13;;;2.22;;
48522;SDS011;34315;50.150;11.070;2022-09-17T19:43:04;4.72;;;1.40;;
48522;SDS011;34315;50.150;11.070;2022-09-17T19:48:05;4.78;;;1.50;;
48522;SDS011;34315;50.150;11.070;2022-09-17T19:53:05;2.00;;;1.10;;
48522;SDS011;34315;50.150;11.070;2022-09-17T19:58:06;0.95;;;0.75;;
48522;SDS011;34315;50.150;11.070;2022-09-17T20:03:06;1.30;;;0.80;;
48522;SDS011;34315;50.150;11.070;2022-09-17T20:08:07;2.05;;;1.13;;
48522;SDS011;34315;50.150;11.070;2022-09-17T20:13:08;2.20;;;0.98;;
48522;SDS011;34315;50.150;11.070;2022-09-17T20:18:08;2.28;;;1.20;;
48522;SDS011;34315;50.150;11.070;2022-09-17T20:23:09;2.20;;;1.00;;
48522;SDS011;34315;50.150;11.070;2022-09-17T20:28:09;3.28;;;1.00;;
48522;SDS011;34315;50.150;11.070;2022-09-17T20:33:09;1.58;;;0.82;;
48522;SDS011;34315;50.150;11.070;2022-09-17T20:38:10;2.92;;;0.90;;
48522;SDS011;34315;50.150;11.070;2022-09-17T20:43:10;3.00;;;1.00;;
48522;SDS011;34315;50.150;11.070;2022-09-17T20:48:11;2.53;;;0.80;;
48522;SDS011;34315;50.150;11.070;2022-09-17T20:53:11;1.92;;;0.80;;
48522;SDS011;34315;50.150;11.070;2022-09-17T20:58:11;2.20;;;1.00;;
48522;SDS011;34315;50.150;11.070;2022-09-17T21:03:12;4.55;;;1.05;;
48522;SDS011;34315;50.150;11.070;2022-09-17T21:08:12;3.80;;;1.15;;
48522;SDS011;34315;50.150;11.070;2022-09-17T21:13:13;2.85;;;1.10;;
48522;SDS011;34315;50.150;11.070;2022-09-17T21:18:14;3.13;;;1.02;;
48522;SDS011;34315;50.150;11.070;2022-09-17T21:23:14;3.15;;;1.20;;
48522;SDS011;34315;50.150;11.070;2022-09-17T21:28:15;2.97;;;0.93;;
48522;SDS011;34315;50.150;11.070;2022-09-17T21:33:19;2.60;;;0.93;;
48522;SDS011;34315;50.150;11.070;2022-09-17T21:38:22;4.45;;;1.45;;
48522;SDS011;34315;50.150;11.070;2022-09-17T21:43:23;3.58;;;1.17;;
48522;SDS011;34315;50.150;11.070;2022-09-17T21:48:24;4.20;;;0.80;;
48522;SDS011;34315;50.150;11.070;2022-09-17T21:53:25;5.63;;;1.80;;
48522;SDS011;34315;50.150;11.070;2022-09-17T21:58:25;5.05;;;1.42;;
48522;SDS011;34315;50.150;11.070;2022-09-17T22:03:26;3.85;;;1.10;;
48522;SDS011;34315;50.150;11.070;2022-09-17T22:08:26;2.67;;;1.33;;
48522;SDS011;34315;50.150;11.070;2022-09-17T22:13:27;6.03;;;1.10;;
48522;SDS011;34315;50.150;11.070;2022-09-17T22:18:27;3.50;;;1.30;;
48522;SDS011;34315;50.150;11.070;2022-09-17T22:23:28;1.63;;;0.80;;
48522;SDS011;34315;50.150;11.070;2022-09-17T22:28:31;3.17;;;1.10;;
48522;SDS011;34315;50.150;11.070;2022-09-17T22:33:37;1.92;;;0.90;;
48522;SDS011;34315;50.150;11.070;2022-09-17T22:38:39;4.10;;;1.10;;
48522;SDS011;34315;50.150;11.070;2022-09-17T22:43:40;2.55;;;1.13;;
48522;SDS011;34315;50.150;11.070;2022-09-17T22:48:40;1.40;;;0.88;;
48522;SDS011;34315;50.150;11.070;2022-09-17T22:53:41;2.90;;;0.88;;
48522;SDS011;34315;50.150;11.070;2022-09-17T22:58:42;2.53;;;1.17;;
48522;SDS011;34315;50.150;11.070;2022-09-17T23:03:43;7.32;;;1.20;;
48522;SDS011;34315;50.150;11.070;2022-09-17T23:08:44;5.07;;;1.10;;
48522;SDS011;34315;50.150;11.070;2022-09-17T23:13:45;5.63;;;1.50;;
48522;SDS011;34315;50.150;11.070;2022-09-17T23:18:46;4.55;;;1.30;;
48522;SDS011;34315;50.150;11.070;2022-09-17T23:23:49;3.88;;;1.67;;
48522;SDS011;34315;50.150;11.070;2022-09-17T23:28:50;5.60;;;1.20;;
48522;SDS011;34315;50.150;11.070;2022-09-17T23:33:51;2.60;;;1.05;;
48522;SDS011;34315;50.150;11.070;2022-09-17T23:38:53;2.75;;;0.98;;
48522;SDS011;34315;50.150;11.070;2022-09-17T23:43:55;2.92;;;0.88;;
48522;SDS011;34315;50.150;11.070;2022-09-17T23:48:56;4.25;;;1.35;;
48522;SDS011;34315;50.150;11.070;2022-09-17T23:53:57;1.02;;;0.93;;
48522;SDS011;34315;50.150;11.070;2022-09-17T23:58:58;2.97;;;0.98;;
